sensor_id;sensor_type;location;lat;lon;timestamp;pressure;altitude;pressure_sealevel;temperature;humidity
37972;BME280;23794;48.234;8.344;2023-10-13T00:00:40;94452.53;;;15.58;54.13
37972;BME280;23794;48.234;8.344;2023-10-13T00:03:08;94459.25;;;15.57;54.16
37972;BME280;23794;48.234;8.344;2023-10-13T00:05:42;94458.72;;;15.46;54.41
37972;BME280;23794;48.234;8.344;2023-10-13T00:08:10;94460.41;;;15.40;54.98
37972;BME280;23794;48.234;8.344;2023-10-13T00:10:37;94453.44;;;15.35;55.59
37972;BME280;23794;48.234;8.344;2023-10-13T00:13:05;94460.00;;;15.21;55.47
37972;BME280;23794;48.234;8.344;2023-10-13T00:15:45;94458.16;;;15.14;55.75
37972;BME280;23794;48.234;8.344;2023-10-13T00:18:30;94455.91;;;15.09;56.00
37972;BME280;23794;48.234;8.344;2023-10-13T00:21:02;94450.16;;;15.00;55.74
37972;BME280;23794;48.234;8.344;2023-10-13T00:23:41;94445.50;;;14.97;56.63
37972;BME280;23794;48.234;8.344;2023-10-13T00:26:23;94448.28;;;14.97;55.82
37972;BME280;23794;48.234;8.344;2023-10-13T00:29:00;94439.19;;;14.96;55.63
37972;BME280;23794;48.234;8.344;2023-10-13T00:31:40;94438.16;;;14.90;56.25
37972;BME280;23794;48.234;8.344;2023-10-13T00:34:12;94435.03;;;14.88;56.41
37972;BME280;23794;48.234;8.344;2023-10-13T00:36:46;94442.28;;;14.78;57.31
37972;BME280;23794;48.234;8.344;2023-10-13T00:39:36;94438.53;;;14.68;57.07
37972;BME280;23794;48.234;8.344;2023-10-13T00:42:04;94437.31;;;14.69;57.33
37972;BME280;23794;48.234;8.344;2023-10-13T00:44:44;94441.78;;;14.63;57.74
37972;BME280;23794;48.234;8.344;2023-10-13T00:47:16;94445.94;;;14.72;57.01
37972;BME280;23794;48.234;8.344;2023-10-13T00:50:05;94437.66;;;14.72;57.45
37972;BME280;23794;48.234;8.344;2023-10-13T00:52:35;94443.91;;;14.76;56.60
37972;BME280;23794;48.234;8.344;2023-10-13T00:55:03;94438.69;;;14.81;56.62
37972;BME280;23794;48.234;8.344;2023-10-13T00:57:31;94450.56;;;14.78;57.10
37972;BME280;23794;48.234;8.344;2023-10-13T00:59:59;94441.97;;;14.73;56.67
37972;BME280;23794;48.234;8.344;2023-10-13T01:02:39;94446.28;;;14.74;57.48
37972;BME280;23794;48.234;8.344;2023-10-13T01:05:09;94439.78;;;14.64;57.58
37972;BME280;23794;48.234;8.344;2023-10-13T01:07:37;94439.03;;;14.63;57.18
37972;BME280;23794;48.234;8.344;2023-10-13T01:10:04;94441.50;;;14.78;56.81
37972;BME280;23794;48.234;8.344;2023-10-13T01:12:35;94443.09;;;14.75;57.69
37972;BME280;23794;48.234;8.344;2023-10-13T01:15:04;94441.66;;;14.71;57.18
37972;BME280;23794;48.234;8.344;2023-10-13T01:17:35;94447.22;;;14.67;57.89
37972;BME280;23794;48.234;8.344;2023-10-13T01:20:03;94444.47;;;14.67;57.11
37972;BME280;23794;48.234;8.344;2023-10-13T01:22:31;94448.19;;;14.57;57.74
37972;BME280;23794;48.234;8.344;2023-10-13T01:24:59;94447.25;;;14.43;58.90
37972;BME280;23794;48.234;8.344;2023-10-13T01:27:37;94447.19;;;14.47;58.07
37972;BME280;23794;48.234;8.344;2023-10-13T01:30:08;94440.16;;;14.42;58.77
37972;BME280;23794;48.234;8.344;2023-10-13T01:32:52;94445.38;;;14.36;58.94
37972;BME280;23794;48.234;8.344;2023-10-13T01:35:20;94445.06;;;14.31;59.42
37972;BME280;23794;48.234;8.344;2023-10-13T01:37:53;94449.88;;;14.27;58.95
37972;BME280;23794;48.234;8.344;2023-10-13T01:40:20;94448.00;;;14.20;59.21
37972;BME280;23794;48.234;8.344;2023-10-13T01:42:47;94450.38;;;14.21;58.61
37972;BME280;23794;48.234;8.344;2023-10-13T01:45:21;94446.88;;;14.17;59.38
37972;BME280;23794;48.234;8.344;2023-10-13T01:47:53;94450.47;;;14.14;59.68
37972;BME280;23794;48.234;8.344;2023-10-13T01:50:19;94439.16;;;14.09;59.50
37972;BME280;23794;48.234;8.344;2023-10-13T01:52:59;94444.41;;;13.99;60.28
37972;BME280;23794;48.234;8.344;2023-10-13T01:55:41;94431.41;;;14.00;59.98
37972;BME280;23794;48.234;8.344;2023-10-13T01:58:14;94425.59;;;13.94;59.98
37972;BME280;23794;48.234;8.344;2023-10-13T02:00:50;94435.88;;;13.90;60.13
37972;BME280;23794;48.234;8.344;2023-10-13T02:03:16;94422.53;;;13.88;60.34
37972;BME280;23794;48.234;8.344;2023-10-13T02:05:45;94430.06;;;13.84;60.60
37972;BME280;23794;48.234;8.344;2023-10-13T02:08:19;94428.28;;;13.74;60.50
37972;BME280;23794;48.234;8.344;2023-10-13T02:10:51;94424.66;;;13.77;60.24
37972;BME280;23794;48.234;8.344;2023-10-13T02:13:19;94422.34;;;13.76;60.42
37972;BME280;23794;48.234;8.344;2023-10-13T02:15:48;94419.34;;;13.63;61.01
37972;BME280;23794;48.234;8.344;2023-10-13T02:18:19;94419.78;;;13.61;60.84
37972;BME280;23794;48.234;8.344;2023-10-13T02:21:08;94419.28;;;13.70;60.03
37972;BME280;23794;48.234;8.344;2023-10-13T02:23:43;94422.22;;;13.83;60.19
37972;BME280;23794;48.234;8.344;2023-10-13T02:26:14;94409.38;;;13.76;60.28
37972;BME280;23794;48.234;8.344;2023-10-13T02:29:01;94416.53;;;13.70;61.41
37972;BME280;23794;48.234;8.344;2023-10-13T02:31:38;94409.13;;;13.63;61.25
37972;BME280;23794;48.234;8.344;2023-10-13T02:34:06;94412.00;;;13.56;61.39
37972;BME280;23794;48.234;8.344;2023-10-13T02:36:36;94406.53;;;13.52;61.50
37972;BME280;23794;48.234;8.344;2023-10-13T02:39:04;94404.97;;;13.51;61.53
37972;BME280;23794;48.234;8.344;2023-10-13T02:41:36;94397.84;;;13.54;61.39
37972;BME280;23794;48.234;8.344;2023-10-13T02:44:07;94401.13;;;13.45;61.34
37972;BME280;23794;48.234;8.344;2023-10-13T02:46:46;94397.66;;;13.41;61.75
37972;BME280;23794;48.234;8.344;2023-10-13T02:49:16;94393.44;;;13.33;63.04
37972;BME280;23794;48.234;8.344;2023-10-13T02:51:46;94382.38;;;13.36;61.75
37972;BME280;23794;48.234;8.344;2023-10-13T02:54:13;94381.94;;;13.41;61.46
37972;BME280;23794;48.234;8.344;2023-10-13T02:56:45;94381.56;;;13.39;61.65
37972;BME280;23794;48.234;8.344;2023-10-13T02:59:25;94381.34;;;13.26;62.17
37972;BME280;23794;48.234;8.344;2023-10-13T03:02:02;94376.63;;;13.27;62.10
37972;BME280;23794;48.234;8.344;2023-10-13T03:04:34;94379.06;;;13.21;62.56
37972;BME280;23794;48.234;8.344;2023-10-13T03:07:01;94379.06;;;13.21;62.47
37972;BME280;23794;48.234;8.344;2023-10-13T03:09:28;94375.16;;;13.19;62.57
37972;BME280;23794;48.234;8.344;2023-10-13T03:11:55;94372.31;;;13.26;62.68
37972;BME280;23794;48.234;8.344;2023-10-13T03:14:23;94373.13;;;13.23;62.14
37972;BME280;23794;48.234;8.344;2023-10-13T03:16:52;94366.34;;;13.31;62.55
37972;BME280;23794;48.234;8.344;2023-10-13T03:19:20;94365.34;;;13.18;63.64
37972;BME280;23794;48.234;8.344;2023-10-13T03:21:47;94364.16;;;13.19;63.06
37972;BME280;23794;48.234;8.344;2023-10-13T03:24:24;94367.38;;;13.14;63.46
37972;BME280;23794;48.234;8.344;2023-10-13T03:27:01;94361.75;;;13.21;62.59
37972;BME280;23794;48.234;8.344;2023-10-13T03:29:39;94361.88;;;13.14;64.27
37972;BME280;23794;48.234;8.344;2023-10-13T03:32:14;94351.75;;;13.07;64.17
37972;BME280;23794;48.234;8.344;2023-10-13T03:34:43;94354.91;;;13.05;64.77
37972;BME280;23794;48.234;8.344;2023-10-13T03:37:20;94351.81;;;13.03;64.15
37972;BME280;23794;48.234;8.344;2023-10-13T03:40:13;94356.59;;;12.95;63.68
37972;BME280;23794;48.234;8.344;2023-10-13T03:43:03;94353.47;;;12.93;63.93
37972;BME280;23794;48.234;8.344;2023-10-13T03:45:41;94353.13;;;12.91;63.82
37972;BME280;23794;48.234;8.344;2023-10-13T03:48:28;94353.63;;;12.83;64.12
37972;BME280;23794;48.234;8.344;2023-10-13T03:51:00;94365.31;;;12.90;63.61
37972;BME280;23794;48.234;8.344;2023-10-13T03:53:34;94357.50;;;12.89;64.19
37972;BME280;23794;48.234;8.344;2023-10-13T03:56:02;94360.16;;;12.96;63.65
37972;BME280;23794;48.234;8.344;2023-10-13T03:58:36;94354.75;;;12.89;64.08
37972;BME280;23794;48.234;8.344;2023-10-13T04:01:05;94363.94;;;12.75;64.51
37972;BME280;23794;48.234;8.344;2023-10-13T04:03:32;94361.81;;;12.86;64.03
37972;BME280;23794;48.234;8.344;2023-10-13T04:06:06;94362.66;;;12.83;63.94
37972;BME280;23794;48.234;8.344;2023-10-13T04:08:33;94352.47;;;12.80;63.78
37972;BME280;23794;48.234;8.344;2023-10-13T04:11:25;94359.59;;;12.77;64.59
37972;BME280;23794;48.234;8.344;2023-10-13T04:14:10;94348.25;;;12.72;64.37
37972;BME280;23794;48.234;8.344;2023-10-13T04:16:50;94347.16;;;12.66;64.31
37972;BME280;23794;48.234;8.344;2023-10-13T04:19:21;94336.13;;;12.69;64.49
37972;BME280;23794;48.234;8.344;2023-10-13T04:21:53;94344.66;;;12.78;64.42
37972;BME280;23794;48.234;8.344;2023-10-13T04:24:26;94332.78;;;12.85;63.74
37972;BME280;23794;48.234;8.344;2023-10-13T04:27:02;94341.13;;;12.78;63.64
37972;BME280;23794;48.234;8.344;2023-10-13T04:29:38;94348.59;;;12.77;63.70
37972;BME280;23794;48.234;8.344;2023-10-13T04:32:15;94340.38;;;12.74;63.19
37972;BME280;23794;48.234;8.344;2023-10-13T04:34:46;94343.09;;;12.77;63.41
37972;BME280;23794;48.234;8.344;2023-10-13T04:37:12;94333.69;;;12.75;63.91
37972;BME280;23794;48.234;8.344;2023-10-13T04:40:00;94332.13;;;12.74;64.53
37972;BME280;23794;48.234;8.344;2023-10-13T04:42:36;94334.22;;;12.66;64.10
37972;BME280;23794;48.234;8.344;2023-10-13T04:45:17;94333.03;;;12.63;64.72
37972;BME280;23794;48.234;8.344;2023-10-13T04:47:56;94331.50;;;12.62;64.49
37972;BME280;23794;48.234;8.344;2023-10-13T04:50:45;94328.75;;;12.62;64.12
37972;BME280;23794;48.234;8.344;2023-10-13T04:53:13;94334.22;;;12.66;64.92
37972;BME280;23794;48.234;8.344;2023-10-13T04:55:55;94334.56;;;12.68;64.37
37972;BME280;23794;48.234;8.344;2023-10-13T04:58:54;94327.06;;;12.72;64.23
37972;BME280;23794;48.234;8.344;2023-10-13T05:01:38;94331.97;;;12.88;63.04
37972;BME280;23794;48.234;8.344;2023-10-13T05:04:25;94332.69;;;12.92;62.69
37972;BME280;23794;48.234;8.344;2023-10-13T05:07:10;94327.16;;;12.96;60.36
37972;BME280;23794;48.234;8.344;2023-10-13T05:09:56;94322.28;;;13.07;60.95
37972;BME280;23794;48.234;8.344;2023-10-13T05:12:42;94314.50;;;13.02;61.43
37972;BME280;23794;48.234;8.344;2023-10-13T05:15:27;94322.84;;;12.95;61.85
37972;BME280;23794;48.234;8.344;2023-10-13T05:18:12;94317.06;;;12.86;61.94
37972;BME280;23794;48.234;8.344;2023-10-13T05:20:57;94318.63;;;12.87;61.99
37972;BME280;23794;48.234;8.344;2023-10-13T05:23:43;94317.84;;;12.86;61.71
37972;BME280;23794;48.234;8.344;2023-10-13T05:26:27;94313.59;;;12.82;61.70
37972;BME280;23794;48.234;8.344;2023-10-13T05:29:13;94313.69;;;12.74;62.28
37972;BME280;23794;48.234;8.344;2023-10-13T05:31:58;94314.88;;;12.73;61.65
37972;BME280;23794;48.234;8.344;2023-10-13T05:34:43;94317.34;;;12.64;62.46
37972;BME280;23794;48.234;8.344;2023-10-13T05:37:28;94325.75;;;12.50;63.59
37972;BME280;23794;48.234;8.344;2023-10-13T05:40:13;94321.91;;;12.43;63.25
37972;BME280;23794;48.234;8.344;2023-10-13T05:43:05;94320.78;;;12.34;63.51
37972;BME280;23794;48.234;8.344;2023-10-13T05:45:50;94323.63;;;12.26;63.25
37972;BME280;23794;48.234;8.344;2023-10-13T05:48:36;94325.63;;;12.22;64.42
37972;BME280;23794;48.234;8.344;2023-10-13T05:51:21;94329.94;;;12.23;63.64
37972;BME280;23794;48.234;8.344;2023-10-13T05:54:03;94334.78;;;12.08;64.90
37972;BME280;23794;48.234;8.344;2023-10-13T05:56:36;94325.00;;;12.07;64.04
37972;BME280;23794;48.234;8.344;2023-10-13T05:59:21;94333.31;;;12.00;64.36
37972;BME280;23794;48.234;8.344;2023-10-13T06:02:06;94332.88;;;12.05;64.30
37972;BME280;23794;48.234;8.344;2023-10-13T06:04:51;94332.47;;;12.07;64.15
37972;BME280;23794;48.234;8.344;2023-10-13T06:07:36;94334.88;;;12.01;64.48
37972;BME280;23794;48.234;8.344;2023-10-13T06:10:21;94329.47;;;11.90;65.12
37972;BME280;23794;48.234;8.344;2023-10-13T06:13:07;94333.41;;;11.89;64.91
37972;BME280;23794;48.234;8.344;2023-10-13T06:15:52;94328.75;;;11.86;65.40
37972;BME280;23794;48.234;8.344;2023-10-13T06:18:38;94331.47;;;11.90;64.77
37972;BME280;23794;48.234;8.344;2023-10-13T06:21:23;94326.72;;;11.90;64.97
37972;BME280;23794;48.234;8.344;2023-10-13T06:24:08;94325.94;;;11.93;64.48
37972;BME280;23794;48.234;8.344;2023-10-13T06:26:53;94329.78;;;11.99;64.67
37972;BME280;23794;48.234;8.344;2023-10-13T06:29:37;94333.72;;;11.98;64.63
37972;BME280;23794;48.234;8.344;2023-10-13T06:32:04;94324.72;;;11.98;65.11
37972;BME280;23794;48.234;8.344;2023-10-13T06:34:40;94326.28;;;11.95;65.73
37972;BME280;23794;48.234;8.344;2023-10-13T06:37:15;94325.06;;;12.00;65.62
37972;BME280;23794;48.234;8.344;2023-10-13T06:39:53;94332.88;;;12.05;65.02
37972;BME280;23794;48.234;8.344;2023-10-13T06:42:23;94335.94;;;12.11;64.99
37972;BME280;23794;48.234;8.344;2023-10-13T06:44:57;94334.00;;;12.11;64.92
37972;BME280;23794;48.234;8.344;2023-10-13T06:47:26;94331.59;;;12.17;65.16
37972;BME280;23794;48.234;8.344;2023-10-13T06:49:54;94331.47;;;12.28;64.72
37972;BME280;23794;48.234;8.344;2023-10-13T06:52:23;94329.00;;;12.37;64.69
37972;BME280;23794;48.234;8.344;2023-10-13T06:54:50;94326.25;;;12.41;64.58
37972;BME280;23794;48.234;8.344;2023-10-13T06:57:17;94326.56;;;12.46;64.89
37972;BME280;23794;48.234;8.344;2023-10-13T06:59:49;94330.16;;;12.43;64.56
37972;BME280;23794;48.234;8.344;2023-10-13T07:02:17;94331.63;;;12.52;64.53
37972;BME280;23794;48.234;8.344;2023-10-13T07:05:00;94326.72;;;12.67;63.73
37972;BME280;23794;48.234;8.344;2023-10-13T07:07:35;94330.22;;;12.71;63.54
37972;BME280;23794;48.234;8.344;2023-10-13T07:10:02;94327.06;;;12.72;63.57
37972;BME280;23794;48.234;8.344;2023-10-13T07:12:34;94334.34;;;12.86;62.80
37972;BME280;23794;48.234;8.344;2023-10-13T07:15:01;94325.22;;;12.93;63.31
37972;BME280;23794;48.234;8.344;2023-10-13T07:17:42;94334.94;;;13.01;63.46
37972;BME280;23794;48.234;8.344;2023-10-13T07:20:11;94326.13;;;13.14;63.05
37972;BME280;23794;48.234;8.344;2023-10-13T07:22:42;94334.16;;;13.28;61.40
37972;BME280;23794;48.234;8.344;2023-10-13T07:25:21;94330.75;;;13.48;62.36
37972;BME280;23794;48.234;8.344;2023-10-13T07:27:52;94331.34;;;13.59;60.81
37972;BME280;23794;48.234;8.344;2023-10-13T07:30:20;94332.34;;;13.72;61.41
37972;BME280;23794;48.234;8.344;2023-10-13T07:32:53;94328.56;;;13.86;61.41
37972;BME280;23794;48.234;8.344;2023-10-13T07:35:24;94328.69;;;14.03;60.60
37972;BME280;23794;48.234;8.344;2023-10-13T07:37:52;94325.66;;;14.17;59.76
37972;BME280;23794;48.234;8.344;2023-10-13T07:40:23;94327.72;;;14.33;59.98
37972;BME280;23794;48.234;8.344;2023-10-13T07:42:56;94324.06;;;14.40;59.83
37972;BME280;23794;48.234;8.344;2023-10-13T07:45:40;94329.38;;;14.51;59.13
37972;BME280;23794;48.234;8.344;2023-10-13T07:48:08;94322.97;;;14.58;57.78
37972;BME280;23794;48.234;8.344;2023-10-13T07:50:48;94321.47;;;14.73;58.80
37972;BME280;23794;48.234;8.344;2023-10-13T07:53:24;94323.16;;;14.87;58.76
37972;BME280;23794;48.234;8.344;2023-10-13T07:55:51;94325.63;;;15.02;57.91
37972;BME280;23794;48.234;8.344;2023-10-13T07:58:29;94327.44;;;15.08;58.22
37972;BME280;23794;48.234;8.344;2023-10-13T08:00:58;94318.19;;;15.19;57.29
37972;BME280;23794;48.234;8.344;2023-10-13T08:03:25;94315.50;;;15.31;57.01
37972;BME280;23794;48.234;8.344;2023-10-13T08:06:01;94311.13;;;15.51;57.73
37972;BME280;23794;48.234;8.344;2023-10-13T08:08:33;94318.38;;;15.61;57.31
37972;BME280;23794;48.234;8.344;2023-10-13T08:11:17;94310.44;;;15.79;56.12
37972;BME280;23794;48.234;8.344;2023-10-13T08:13:56;94316.06;;;15.92;55.76
37972;BME280;23794;48.234;8.344;2023-10-13T08:16:35;94302.59;;;16.11;56.81
37972;BME280;23794;48.234;8.344;2023-10-13T08:19:31;94304.97;;;16.25;56.66
37972;BME280;23794;48.234;8.344;2023-10-13T08:22:11;94310.66;;;16.35;55.23
37972;BME280;23794;48.234;8.344;2023-10-13T08:24:45;94297.00;;;16.57;54.62
37972;BME280;23794;48.234;8.344;2023-10-13T08:27:14;94295.38;;;16.72;54.57
37972;BME280;23794;48.234;8.344;2023-10-13T08:29:41;94298.41;;;16.91;54.08
37972;BME280;23794;48.234;8.344;2023-10-13T08:32:24;94298.16;;;17.15;54.11
37972;BME280;23794;48.234;8.344;2023-10-13T08:37:21;94291.50;;;17.64;51.66
37972;BME280;23794;48.234;8.344;2023-10-13T08:42:36;94286.44;;;18.10;51.49
37972;BME280;23794;48.234;8.344;2023-10-13T08:45:10;94285.47;;;18.26;49.91
37972;BME280;23794;48.234;8.344;2023-10-13T08:47:48;94287.13;;;18.37;50.11
37972;BME280;23794;48.234;8.344;2023-10-13T08:53:29;94280.09;;;18.89;46.61
37972;BME280;23794;48.234;8.344;2023-10-13T08:56:03;94282.38;;;19.13;45.62
37972;BME280;23794;48.234;8.344;2023-10-13T08:59:05;94274.00;;;19.35;47.61
37972;BME280;23794;48.234;8.344;2023-10-13T09:01:36;94270.22;;;19.61;43.33
37972;BME280;23794;48.234;8.344;2023-10-13T09:06:52;94275.88;;;19.98;44.15
37972;BME280;23794;48.234;8.344;2023-10-13T09:09:45;94274.97;;;20.29;44.12
37972;BME280;23794;48.234;8.344;2023-10-13T09:12:17;94267.28;;;20.61;40.02
37972;BME280;23794;48.234;8.344;2023-10-13T09:14:53;94255.56;;;21.09;39.34
37972;BME280;23794;48.234;8.344;2023-10-13T09:17:24;94262.00;;;21.43;39.25
37972;BME280;23794;48.234;8.344;2023-10-13T09:20:03;94253.88;;;21.78;39.14
37972;BME280;23794;48.234;8.344;2023-10-13T09:22:53;94250.81;;;22.01;35.42
37972;BME280;23794;48.234;8.344;2023-10-13T09:25:36;94251.56;;;22.01;36.14
37972;BME280;23794;48.234;8.344;2023-10-13T09:28:04;94247.63;;;22.17;38.40
37972;BME280;23794;48.234;8.344;2023-10-13T09:30:52;94246.59;;;22.30;36.54
37972;BME280;23794;48.234;8.344;2023-10-13T09:33:20;94248.06;;;22.40;35.52
37972;BME280;23794;48.234;8.344;2023-10-13T09:35:55;94243.94;;;22.50;33.79
37972;BME280;23794;48.234;8.344;2023-10-13T09:38:27;94244.84;;;22.56;32.99
37972;BME280;23794;48.234;8.344;2023-10-13T09:40:54;94248.31;;;22.66;32.23
37972;BME280;23794;48.234;8.344;2023-10-13T09:43:24;94241.19;;;22.80;30.72
37972;BME280;23794;48.234;8.344;2023-10-13T09:45:58;94240.03;;;22.87;30.08
37972;BME280;23794;48.234;8.344;2023-10-13T09:48:37;94237.66;;;22.95;30.54
37972;BME280;23794;48.234;8.344;2023-10-13T09:51:12;94229.19;;;23.04;31.07
37972;BME280;23794;48.234;8.344;2023-10-13T09:53:58;94235.94;;;22.97;30.79
37972;BME280;23794;48.234;8.344;2023-10-13T09:56:35;94218.88;;;22.95;31.62
37972;BME280;23794;48.234;8.344;2023-10-13T09:59:32;94228.22;;;23.07;30.62
37972;BME280;23794;48.234;8.344;2023-10-13T10:02:05;94228.03;;;23.11;29.38
37972;BME280;23794;48.234;8.344;2023-10-13T10:04:38;94223.44;;;23.43;30.67
37972;BME280;23794;48.234;8.344;2023-10-13T10:07:24;94212.19;;;23.73;29.65
37972;BME280;23794;48.234;8.344;2023-10-13T10:10:01;94219.31;;;23.74;29.39
37972;BME280;23794;48.234;8.344;2023-10-13T10:12:35;94210.53;;;23.81;28.62
37972;BME280;23794;48.234;8.344;2023-10-13T10:15:26;94201.50;;;24.13;28.55
37972;BME280;23794;48.234;8.344;2023-10-13T10:17:57;94202.19;;;24.28;27.82
37972;BME280;23794;48.234;8.344;2023-10-13T10:20:34;94192.47;;;24.44;27.70
37972;BME280;23794;48.234;8.344;2023-10-13T10:23:28;94179.41;;;24.62;28.42
37972;BME280;23794;48.234;8.344;2023-10-13T10:26:14;94183.28;;;24.70;26.87
37972;BME280;23794;48.234;8.344;2023-10-13T10:28:42;94183.88;;;24.80;27.14
37972;BME280;23794;48.234;8.344;2023-10-13T10:31:10;94185.38;;;25.02;28.08
37972;BME280;23794;48.234;8.344;2023-10-13T10:33:46;94170.50;;;25.22;27.29
37972;BME280;23794;48.234;8.344;2023-10-13T10:36:29;94178.66;;;25.20;26.41
37972;BME280;23794;48.234;8.344;2023-10-13T10:38:58;94170.53;;;25.28;26.50
37972;BME280;23794;48.234;8.344;2023-10-13T10:41:30;94172.41;;;25.42;25.46
37972;BME280;23794;48.234;8.344;2023-10-13T10:44:15;94186.50;;;25.53;26.05
37972;BME280;23794;48.234;8.344;2023-10-13T10:46:43;94155.75;;;25.70;25.64
37972;BME280;23794;48.234;8.344;2023-10-13T10:49:19;94159.31;;;25.71;25.00
37972;BME280;23794;48.234;8.344;2023-10-13T10:51:59;94168.06;;;25.79;24.97
37972;BME280;23794;48.234;8.344;2023-10-13T10:54:31;94181.31;;;25.78;24.73
37972;BME280;23794;48.234;8.344;2023-10-13T10:57:01;94163.91;;;25.68;24.52
37972;BME280;23794;48.234;8.344;2023-10-13T10:59:38;94156.59;;;25.82;24.80
37972;BME280;23794;48.234;8.344;2023-10-13T11:02:06;94150.44;;;25.78;25.04
37972;BME280;23794;48.234;8.344;2023-10-13T11:04:35;94133.84;;;25.74;24.81
37972;BME280;23794;48.234;8.344;2023-10-13T11:07:08;94144.13;;;25.83;25.19
37972;BME280;23794;48.234;8.344;2023-10-13T11:09:35;94111.91;;;25.73;24.62
37972;BME280;23794;48.234;8.344;2023-10-13T11:12:14;94141.44;;;25.63;25.10
37972;BME280;23794;48.234;8.344;2023-10-13T11:17:27;94133.38;;;25.82;25.62
37972;BME280;23794;48.234;8.344;2023-10-13T11:20:12;94128.59;;;25.88;26.10
37972;BME280;23794;48.234;8.344;2023-10-13T11:22:49;94125.31;;;26.07;26.10
37972;BME280;23794;48.234;8.344;2023-10-13T11:25:24;94121.75;;;26.12;25.89
37972;BME280;23794;48.234;8.344;2023-10-13T11:28:13;94112.81;;;26.08;25.64
37972;BME280;23794;48.234;8.344;2023-10-13T11:30:55;94113.75;;;25.82;25.99
37972;BME280;23794;48.234;8.344;2023-10-13T11:33:27;94118.16;;;25.94;26.11
37972;BME280;23794;48.234;8.344;2023-10-13T11:35:58;94108.50;;;26.12;25.88
37972;BME280;23794;48.234;8.344;2023-10-13T11:38:31;94113.38;;;26.34;25.60
37972;BME280;23794;48.234;8.344;2023-10-13T11:41:03;94117.25;;;26.37;25.57
37972;BME280;23794;48.234;8.344;2023-10-13T11:43:52;94100.88;;;26.35;25.45
37972;BME280;23794;48.234;8.344;2023-10-13T11:46:22;94109.13;;;26.50;24.87
37972;BME280;23794;48.234;8.344;2023-10-13T11:49:09;94096.09;;;26.42;24.92
37972;BME280;23794;48.234;8.344;2023-10-13T11:51:46;94091.72;;;26.35;25.59
37972;BME280;23794;48.234;8.344;2023-10-13T11:54:18;94093.78;;;26.63;25.58
37972;BME280;23794;48.234;8.344;2023-10-13T11:56:46;94109.13;;;26.56;24.60
37972;BME280;23794;48.234;8.344;2023-10-13T11:59:13;94097.88;;;26.45;24.17
37972;BME280;23794;48.234;8.344;2023-10-13T12:01:50;94102.41;;;26.36;24.54
37972;BME280;23794;48.234;8.344;2023-10-13T12:04:37;94090.22;;;26.62;24.50
37972;BME280;23794;48.234;8.344;2023-10-13T12:07:21;94091.75;;;26.63;24.37
37972;BME280;23794;48.234;8.344;2023-10-13T12:10:06;94093.81;;;26.68;24.55
37972;BME280;23794;48.234;8.344;2023-10-13T12:12:41;94080.00;;;26.76;24.07
37972;BME280;23794;48.234;8.344;2023-10-13T12:15:09;94079.22;;;26.93;23.62
37972;BME280;23794;48.234;8.344;2023-10-13T12:17:40;94092.25;;;27.13;24.29
37972;BME280;23794;48.234;8.344;2023-10-13T12:20:11;94076.16;;;26.96;23.92
37972;BME280;23794;48.234;8.344;2023-10-13T12:22:44;94073.09;;;26.77;23.27
37972;BME280;23794;48.234;8.344;2023-10-13T12:25:22;94075.69;;;26.70;22.99
37972;BME280;23794;48.234;8.344;2023-10-13T12:27:53;94057.56;;;26.71;22.75
37972;BME280;23794;48.234;8.344;2023-10-13T12:30:24;94059.06;;;26.89;22.92
37972;BME280;23794;48.234;8.344;2023-10-13T12:33:16;94057.28;;;26.97;22.41
37972;BME280;23794;48.234;8.344;2023-10-13T12:36:04;94061.59;;;27.09;21.85
37972;BME280;23794;48.234;8.344;2023-10-13T12:38:36;94057.75;;;27.01;22.34
37972;BME280;23794;48.234;8.344;2023-10-13T12:41:18;94053.69;;;27.13;22.17
37972;BME280;23794;48.234;8.344;2023-10-13T12:44:05;94044.00;;;27.09;21.60
37972;BME280;23794;48.234;8.344;2023-10-13T12:46:51;94037.34;;;26.95;21.51
37972;BME280;23794;48.234;8.344;2023-10-13T12:49:37;94045.78;;;26.83;21.94
37972;BME280;23794;48.234;8.344;2023-10-13T12:52:11;94036.84;;;26.79;21.64
37972;BME280;23794;48.234;8.344;2023-10-13T12:54:52;94030.69;;;26.35;21.73
37972;BME280;23794;48.234;8.344;2023-10-13T12:57:33;94037.63;;;26.63;21.49
37972;BME280;23794;48.234;8.344;2023-10-13T13:00:00;94025.63;;;26.62;20.81
37972;BME280;23794;48.234;8.344;2023-10-13T13:02:28;94027.44;;;26.60;21.12
37972;BME280;23794;48.234;8.344;2023-10-13T13:04:56;94039.44;;;26.66;21.31
37972;BME280;23794;48.234;8.344;2023-10-13T13:07:33;94024.88;;;26.73;20.31
37972;BME280;23794;48.234;8.344;2023-10-13T13:10:10;94022.81;;;26.51;20.01
37972;BME280;23794;48.234;8.344;2023-10-13T13:12:39;94022.31;;;26.75;21.41
37972;BME280;23794;48.234;8.344;2023-10-13T13:15:06;94023.28;;;26.83;20.46
37972;BME280;23794;48.234;8.344;2023-10-13T13:17:36;94015.63;;;26.95;20.73
37972;BME280;23794;48.234;8.344;2023-10-13T13:20:03;94015.66;;;26.90;19.96
37972;BME280;23794;48.234;8.344;2023-10-13T13:22:38;94018.72;;;26.80;20.58
37972;BME280;23794;48.234;8.344;2023-10-13T13:25:05;94009.50;;;26.97;20.86
37972;BME280;23794;48.234;8.344;2023-10-13T13:27:36;94007.44;;;27.03;20.48
37972;BME280;23794;48.234;8.344;2023-10-13T13:30:04;93999.78;;;27.15;20.67
37972;BME280;23794;48.234;8.344;2023-10-13T13:32:39;94003.59;;;27.18;21.03
37972;BME280;23794;48.234;8.344;2023-10-13T13:35:07;94000.72;;;27.35;21.16
37972;BME280;23794;48.234;8.344;2023-10-13T13:37:39;93992.47;;;27.48;21.73
37972;BME280;23794;48.234;8.344;2023-10-13T13:40:09;93981.50;;;27.44;21.09
37972;BME280;23794;48.234;8.344;2023-10-13T13:42:42;93988.97;;;27.30;20.91
37972;BME280;23794;48.234;8.344;2023-10-13T13:45:15;93986.75;;;27.12;21.47
37972;BME280;23794;48.234;8.344;2023-10-13T13:47:49;93988.28;;;26.96;20.49
37972;BME280;23794;48.234;8.344;2023-10-13T13:50:24;93985.22;;;26.94;21.53
37972;BME280;23794;48.234;8.344;2023-10-13T13:52:53;93977.81;;;27.02;21.03
37972;BME280;23794;48.234;8.344;2023-10-13T13:55:26;93981.63;;;27.05;21.58
37972;BME280;23794;48.234;8.344;2023-10-13T13:57:56;93973.72;;;27.09;21.91